METAR AND TAF INFORMATION
METAR FOR MUCL
ADDS - METARS form results

(1059 UTC 21 November 2019)
Data provider http://aviationweather.gov/metar/data/
 
METAR text: MUCL 211005Z AUTO 05014KT 010V080 24/18 Q1017
Conditions at: MUCL (CAYO LARGO D SUR, CU) observed 1005 UTC 21 November 2019
Temperature: 24.0°C (75°F)
Dewpoint: 18.0°C (64°F) [RH = 69%]
Pressure (altimeter): 30.03 inches Hg (1017.0 mb)
Winds: from the NE (50 degrees) at 16 MPH (14 knots; 7.2 m/s)
Visibility: missing
Ceiling: unknown
Clouds: missing
Weather: no significant weather observed at this time

 AIRPORT MAP

 RUNWAY INFORMATION
Runway 12 Runway length 9869 ft Runway width 148 ft
Runway elevation 7 ft Runway displaced threshold 0 ft Runway heading 116
Runway 30 Runway length 9869 ft Runway width 148 ft
Runway elevation 10 ft Runway displaced threshold 0 ft Runway heading 296

 AIRPORT FREQUENCIES
Type A/G Name CAYO LARGO Frequency 340.7 MHZ
Type APP Name CAYO LARGO Frequency 120.1 MHZ
Type TWR Name CAYO LARGO Frequency 118.5 MHZ

 AIRPORT NEAR NAVIGATION AIDS
Type VOR-DME Name Cayo Largo Del Sur Frequency 112100 KHZ
Type NDB Name Cayo Largo Del Sur Frequency 230 KHZ